createdAt,value
2022-09-02T00:01:00.641Z,2.53
2022-09-02T00:03:34.551Z,2.40
2022-09-02T00:06:02.646Z,2.40
2022-09-02T00:08:32.074Z,2.37
2022-09-02T00:11:05.955Z,2.55
2022-09-02T00:13:35.124Z,2.50
2022-09-02T00:16:03.289Z,2.43
2022-09-02T00:18:31.353Z,2.20
2022-09-02T00:20:58.678Z,2.13
2022-09-02T00:23:27.421Z,2.60
2022-09-02T00:25:55.065Z,2.40
2022-09-02T00:28:22.375Z,2.30
2022-09-02T00:30:51.554Z,2.30
2022-09-02T00:33:19.003Z,2.40
2022-09-02T00:35:46.501Z,2.50
2022-09-02T00:38:14.457Z,2.10
2022-09-02T00:40:45.115Z,2.10
2022-09-02T00:43:12.545Z,2.30
2022-09-02T00:45:40.541Z,2.40
2022-09-02T00:48:08.048Z,2.37
2022-09-02T00:50:37.094Z,2.23
2022-09-02T00:53:07.050Z,2.50
2022-09-02T00:55:37.176Z,2.80
2022-09-02T00:58:09.451Z,2.50
2022-09-02T01:00:39.056Z,2.30
2022-09-02T01:03:10.321Z,2.40
2022-09-02T01:05:43.660Z,2.47
2022-09-02T01:08:11.562Z,2.50
2022-09-02T01:10:39.780Z,2.77
2022-09-02T01:13:09.407Z,3.03
2022-09-02T01:15:39.695Z,2.30
2022-09-02T01:18:08.619Z,2.77
2022-09-02T01:20:36.389Z,2.80
2022-09-02T01:23:03.807Z,2.90
2022-09-02T01:25:33.587Z,2.73
2022-09-02T01:28:21.189Z,2.73
2022-09-02T01:30:53.782Z,2.70
2022-09-02T01:33:22.749Z,2.80
2022-09-02T01:35:53.512Z,2.90
2022-09-02T01:38:21.133Z,2.87
2022-09-02T01:40:48.571Z,3.20
2022-09-02T01:43:17.944Z,3.33
2022-09-02T01:45:46.658Z,2.90
2022-09-02T01:48:14.744Z,4.20
2022-09-02T01:50:51.417Z,3.57
2022-09-02T01:53:19.039Z,2.90
2022-09-02T01:55:46.432Z,3.00
2022-09-02T01:58:13.741Z,2.93
2022-09-02T02:00:41.208Z,3.33
2022-09-02T02:03:08.675Z,3.00
2022-09-02T02:05:36.040Z,3.27
2022-09-02T02:08:03.581Z,3.20
2022-09-02T02:10:31.321Z,3.03
2022-09-02T02:12:58.719Z,3.10
2022-09-02T02:17:52.244Z,3.77
2022-09-02T02:20:20.561Z,3.33
2022-09-02T02:22:48.317Z,3.57
2022-09-02T02:25:16.366Z,3.10
2022-09-02T02:27:44.720Z,3.30
2022-09-02T02:30:12.838Z,2.93
2022-09-02T02:32:40.178Z,3.00
2022-09-02T02:35:08.219Z,3.30
2022-09-02T02:37:35.480Z,3.30
2022-09-02T02:40:02.966Z,3.30
2022-09-02T02:42:30.289Z,3.10
2022-09-02T02:44:58.076Z,3.47
2022-09-02T02:47:25.462Z,3.27
2022-09-02T02:49:52.766Z,3.20
2022-09-02T02:52:20.684Z,3.50
2022-09-02T02:54:48.093Z,2.83
2022-09-02T02:57:15.769Z,3.40
2022-09-02T02:59:43.117Z,2.93
2022-09-02T03:02:10.643Z,3.17
2022-09-02T03:04:39.920Z,3.40
2022-09-02T03:07:07.390Z,3.00
2022-09-02T03:09:34.882Z,3.00
2022-09-02T03:12:02.464Z,3.40
2022-09-02T03:14:30.927Z,3.20
2022-09-02T03:16:58.746Z,3.10
2022-09-02T03:19:27.712Z,3.50
2022-09-02T03:21:55.065Z,3.57
2022-09-02T03:24:23.082Z,3.70
2022-09-02T03:26:50.395Z,3.50
2022-09-02T03:29:18.174Z,3.60
2022-09-02T03:31:46.329Z,3.80
2022-09-02T03:34:13.701Z,3.33
2022-09-02T03:36:44.140Z,3.70
2022-09-02T03:39:12.385Z,3.40
2022-09-02T03:41:42.594Z,3.47
2022-09-02T03:44:10.311Z,3.20
2022-09-02T03:46:38.113Z,3.60
2022-09-02T03:49:06.406Z,3.37
2022-09-02T03:51:34.011Z,3.47
2022-09-02T03:54:04.121Z,3.70
2022-09-02T03:56:31.490Z,3.53
2022-09-02T03:58:58.963Z,3.70
2022-09-02T04:01:27.494Z,4.33
2022-09-02T04:03:56.717Z,3.70
2022-09-02T04:06:26.242Z,3.47
2022-09-02T04:08:59.949Z,3.60
2022-09-02T04:11:27.399Z,4.03
2022-09-02T04:13:54.819Z,3.80
2022-09-02T04:16:29.011Z,3.80
2022-09-02T04:18:57.896Z,4.30
2022-09-02T04:21:26.248Z,4.40
2022-09-02T04:23:53.592Z,4.30
2022-09-02T04:26:21.472Z,3.90
2022-09-02T04:28:49.901Z,4.30
2022-09-02T04:31:20.113Z,4.57
2022-09-02T04:33:49.414Z,4.23
2022-09-02T04:36:17.809Z,4.60
2022-09-02T04:38:47.155Z,4.60
2022-09-02T04:41:16.678Z,4.07
2022-09-02T04:43:44.319Z,4.50
2022-09-02T04:46:13.046Z,4.57
2022-09-02T04:48:41.383Z,4.27
2022-09-02T04:51:10.656Z,4.23
2022-09-02T04:53:38.091Z,4.00
2022-09-02T04:56:06.551Z,4.67
2022-09-02T04:58:34.262Z,4.50
2022-09-02T05:01:06.405Z,4.27
2022-09-02T05:03:34.103Z,4.73
2022-09-02T05:06:06.788Z,4.53
2022-09-02T05:08:37.005Z,5.20
2022-09-02T05:11:08.720Z,4.90
2022-09-02T05:13:36.360Z,4.70
2022-09-02T05:16:03.986Z,4.40
2022-09-02T05:18:31.511Z,4.60
2022-09-02T05:20:59.056Z,5.00
2022-09-02T05:23:26.532Z,4.47
2022-09-02T05:25:53.880Z,4.80
2022-09-02T05:28:21.335Z,4.90
2022-09-02T05:30:48.717Z,4.90
2022-09-02T05:33:16.056Z,4.50
2022-09-02T05:35:46.059Z,4.87
2022-09-02T05:38:17.421Z,4.50
2022-09-02T05:40:44.869Z,4.70
2022-09-02T05:43:12.311Z,5.30
2022-09-02T05:45:40.312Z,4.80
2022-09-02T05:48:27.772Z,5.20
2022-09-02T05:50:57.828Z,4.80
2022-09-02T05:53:27.141Z,4.90
2022-09-02T05:55:54.598Z,4.80
2022-09-02T05:58:22.520Z,4.77
2022-09-02T06:00:49.874Z,4.90
2022-09-02T06:03:19.484Z,4.60
2022-09-02T06:05:57.642Z,4.23
2022-09-02T06:08:26.486Z,4.77
2022-09-02T06:10:54.018Z,4.53
2022-09-02T06:13:22.918Z,4.67
2022-09-02T06:15:50.959Z,5.00
2022-09-02T06:18:18.545Z,4.53
2022-09-02T06:20:46.668Z,4.70
2022-09-02T06:23:14.865Z,4.27
2022-09-02T06:25:43.829Z,4.40
2022-09-02T06:28:11.497Z,4.60
2022-09-02T06:30:40.489Z,5.00
2022-09-02T06:33:08.004Z,4.17
2022-09-02T06:35:38.165Z,4.20
2022-09-02T06:38:05.767Z,4.40
2022-09-02T06:40:33.186Z,4.27
2022-09-02T06:43:00.577Z,4.30
2022-09-02T06:45:27.878Z,3.90
2022-09-02T06:47:55.119Z,4.27
2022-09-02T06:50:22.426Z,4.30
2022-09-02T06:52:49.966Z,4.07
2022-09-02T06:55:18.122Z,4.23
2022-09-02T06:57:45.416Z,4.00
2022-09-02T07:00:13.222Z,4.07
2022-09-02T07:02:40.497Z,3.83
2022-09-02T07:05:11.411Z,3.97
2022-09-02T07:07:39.998Z,3.90
2022-09-02T07:10:08.775Z,3.73
2022-09-02T07:12:37.180Z,3.97
2022-09-02T07:15:05.075Z,4.17
2022-09-02T07:17:32.936Z,3.87
2022-09-02T07:20:00.479Z,3.60
2022-09-02T07:22:28.671Z,3.77
2022-09-02T07:24:56.373Z,3.40
2022-09-02T07:27:23.681Z,3.70
2022-09-02T07:29:51.211Z,3.53
2022-09-02T07:32:19.115Z,3.20
2022-09-02T07:34:47.311Z,3.30
2022-09-02T07:37:14.648Z,3.45
2022-09-02T07:39:43.571Z,3.40
2022-09-02T07:42:10.890Z,3.50
2022-09-02T07:44:38.249Z,3.17
2022-09-02T07:47:06.711Z,3.17
2022-09-02T07:50:16.718Z,2.95
2022-09-02T07:52:21.768Z,2.95
2022-09-02T07:54:49.099Z,2.90
2022-09-02T07:57:16.981Z,2.70
2022-09-02T07:59:46.231Z,2.80
2022-09-02T08:02:14.554Z,2.88
2022-09-02T08:04:42.233Z,2.53
2022-09-02T08:07:10.686Z,2.90
2022-09-02T08:09:38.787Z,2.70
2022-09-02T08:12:06.865Z,2.47
2022-09-02T08:14:34.313Z,2.78
2022-09-02T08:17:02.066Z,2.60
2022-09-02T08:19:29.724Z,2.55
2022-09-02T08:21:57.028Z,2.63
2022-09-02T08:24:24.304Z,2.50
2022-09-02T08:26:51.739Z,2.50
2022-09-02T08:29:20.302Z,2.40
2022-09-02T08:31:49.619Z,2.42
2022-09-02T08:34:19.504Z,2.30
2022-09-02T08:36:54.222Z,2.10
2022-09-02T08:41:57.556Z,2.17
2022-09-02T08:44:28.610Z,2.25
2022-09-02T08:47:00.046Z,2.20
2022-09-02T08:49:31.462Z,2.30
2022-09-02T08:52:01.198Z,2.08
2022-09-02T08:54:32.474Z,1.95
2022-09-02T08:56:59.954Z,2.17
2022-09-02T08:59:28.455Z,2.10
2022-09-02T09:02:03.354Z,2.05
2022-09-02T09:04:36.863Z,2.15
2022-09-02T09:07:27.506Z,2.20
2022-09-02T09:09:55.323Z,2.30
2022-09-02T09:12:30.182Z,2.13
2022-09-02T09:15:06.719Z,2.10
2022-09-02T09:17:44.999Z,2.20
2022-09-02T09:20:17.494Z,2.03
2022-09-02T09:22:45.117Z,2.25
2022-09-02T09:25:14.245Z,2.30
2022-09-02T09:27:41.889Z,2.30
2022-09-02T09:30:15.121Z,2.25
2022-09-02T09:32:51.770Z,2.00
2022-09-02T09:35:22.673Z,1.95
2022-09-02T09:37:51.010Z,2.22
2022-09-02T09:40:18.389Z,2.30
2022-09-02T09:42:49.687Z,2.20
2022-09-02T09:45:22.065Z,2.20
2022-09-02T09:48:07.852Z,2.28
2022-09-02T09:50:35.194Z,2.10
2022-09-02T09:53:21.872Z,2.38
2022-09-02T09:55:54.213Z,2.20
2022-09-02T09:58:28.207Z,2.38
2022-09-02T10:01:00.588Z,2.40
2022-09-02T10:03:33.183Z,2.72
2022-09-02T10:06:17.970Z,2.72
2022-09-02T10:08:52.820Z,2.33
2022-09-02T10:11:25.182Z,2.20
2022-09-02T10:13:54.517Z,2.10
2022-09-02T10:16:31.373Z,2.53
2022-09-02T10:18:58.756Z,2.35
2022-09-02T10:21:45.636Z,2.10
2022-09-02T10:24:22.396Z,2.25
2022-09-02T10:26:51.575Z,2.17
2022-09-02T10:29:37.622Z,2.13
2022-09-02T10:32:15.019Z,2.25
2022-09-02T10:34:57.110Z,2.55
2022-09-02T10:37:25.332Z,2.17
2022-09-02T10:39:58.730Z,2.30
2022-09-02T10:42:44.634Z,2.20
2022-09-02T10:45:18.006Z,2.60
2022-09-02T10:50:53.485Z,2.70
2022-09-02T10:53:34.341Z,2.30
2022-09-02T10:56:07.222Z,2.20
2022-09-02T10:59:05.757Z,2.45
2022-09-02T11:01:37.874Z,2.50
2022-09-02T11:04:14.415Z,2.22
2022-09-02T11:07:02.054Z,2.10
2022-09-02T11:09:34.403Z,2.30
2022-09-02T11:12:07.781Z,2.05
2022-09-02T11:14:41.740Z,2.50
2022-09-02T11:17:22.110Z,2.10
2022-09-02T11:19:58.719Z,1.95
2022-09-02T11:22:29.901Z,2.10
2022-09-02T11:25:16.725Z,2.10
2022-09-02T11:28:03.802Z,2.20
2022-09-02T11:30:39.430Z,2.40
2022-09-02T11:33:10.167Z,2.20
2022-09-02T11:35:39.768Z,2.70
2022-09-02T11:38:16.318Z,2.05
2022-09-02T11:43:44.459Z,2.08
2022-09-02T11:46:32.894Z,1.80
2022-09-02T11:49:09.489Z,1.88
2022-09-02T11:51:49.030Z,1.75
2022-09-02T11:54:18.919Z,2.00
2022-09-02T11:56:47.809Z,1.90
2022-09-02T11:59:44.673Z,1.80
2022-09-02T12:02:13.279Z,1.88
2022-09-02T12:04:59.168Z,1.85
2022-09-02T12:07:33.925Z,1.67
2022-09-02T12:10:02.873Z,2.00
2022-09-02T12:12:39.474Z,1.88
2022-09-02T12:15:07.473Z,1.98
2022-09-02T12:17:40.076Z,1.70
2022-09-02T12:20:09.974Z,1.65
2022-09-02T12:22:39.219Z,1.60
2022-09-02T12:25:27.358Z,1.60
2022-09-02T12:28:23.951Z,1.60
2022-09-02T12:31:08.877Z,1.60
2022-09-02T12:33:37.846Z,1.90
2022-09-02T12:36:06.125Z,1.80
2022-09-02T12:38:34.377Z,1.65
2022-09-02T12:41:13.472Z,1.90
2022-09-02T12:43:41.842Z,1.73
2022-09-02T12:46:28.808Z,2.08
2022-09-02T12:49:06.546Z,1.70
2022-09-02T12:51:52.954Z,1.85
2022-09-02T12:54:26.423Z,2.25
2022-09-02T12:56:53.851Z,1.92
2022-09-02T12:59:47.743Z,1.70
2022-09-02T13:02:33.479Z,1.67
2022-09-02T13:05:16.159Z,1.75
2022-09-02T13:07:49.606Z,1.55
2022-09-02T13:10:38.325Z,1.58
2022-09-02T13:13:05.900Z,1.45
2022-09-02T13:15:52.045Z,1.65
2022-09-02T13:18:38.268Z,2.10
2022-09-02T13:21:22.174Z,1.70
2022-09-02T13:23:52.657Z,1.60
2022-09-02T13:26:45.914Z,1.70
2022-09-02T13:29:23.968Z,1.90
2022-09-02T13:32:01.588Z,1.60
2022-09-02T13:34:30.793Z,1.67
2022-09-02T13:36:58.335Z,1.75
2022-09-02T13:39:27.092Z,1.80
2022-09-02T13:41:54.786Z,1.90
2022-09-02T13:44:26.493Z,1.80
2022-09-02T13:46:54.932Z,1.63
2022-09-02T13:49:24.217Z,1.60
2022-09-02T13:51:53.099Z,1.63
2022-09-02T13:54:46.799Z,1.60
2022-09-02T13:57:18.656Z,1.50
2022-09-02T13:59:54.982Z,1.83
2022-09-02T14:02:32.630Z,2.30
2022-09-02T14:05:00.020Z,1.63
2022-09-02T14:07:29.980Z,1.75
2022-09-02T14:09:58.990Z,1.58
2022-09-02T14:12:27.325Z,1.40
2022-09-02T14:14:55.078Z,1.70
2022-09-02T14:17:26.595Z,1.90
2022-09-02T14:20:09.220Z,1.42
2022-09-02T14:22:37.042Z,1.42
2022-09-02T14:25:14.666Z,1.60
2022-09-02T14:27:49.474Z,1.30
2022-09-02T14:30:28.457Z,1.80
2022-09-02T14:33:14.617Z,1.40
2022-09-02T14:35:41.907Z,1.60
2022-09-02T14:38:09.200Z,1.40
2022-09-02T14:40:37.775Z,1.50
2022-09-02T14:43:05.707Z,1.63
2022-09-02T14:45:34.086Z,1.40
2022-09-02T14:48:04.206Z,1.42
2022-09-02T14:50:35.274Z,1.52
2022-09-02T14:53:07.454Z,1.42
2022-09-02T14:55:44.401Z,1.42
2022-09-02T14:58:12.046Z,1.30
2022-09-02T15:00:41.583Z,1.40
2022-09-02T15:03:10.263Z,1.30
2022-09-02T15:05:37.548Z,1.50
2022-09-02T15:08:09.288Z,1.20
2022-09-02T15:10:38.495Z,1.20
2022-09-02T15:13:06.487Z,1.50
2022-09-02T15:15:33.970Z,1.58
2022-09-02T15:18:02.579Z,1.40
2022-09-02T15:20:30.556Z,1.60
2022-09-02T15:22:59.617Z,1.50
2022-09-02T15:25:30.775Z,1.40
2022-09-02T15:27:58.073Z,1.55
2022-09-02T15:30:25.579Z,1.70
2022-09-02T15:32:53.042Z,1.40
2022-09-02T15:35:20.910Z,1.48
2022-09-02T15:37:50.672Z,1.40
2022-09-02T15:40:18.151Z,1.45
2022-09-02T15:42:45.534Z,1.60
2022-09-02T15:45:13.883Z,1.58
2022-09-02T15:47:41.421Z,1.45
2022-09-02T15:50:08.979Z,1.45
2022-09-02T15:52:37.153Z,1.50
2022-09-02T15:55:05.035Z,1.33
2022-09-02T15:57:32.415Z,1.60
2022-09-02T16:00:00.258Z,1.58
2022-09-02T16:02:27.855Z,3.78
2022-09-02T16:04:56.461Z,2.38
2022-09-02T16:07:24.577Z,2.30
2022-09-02T16:09:52.193Z,2.15
2022-09-02T16:12:19.655Z,2.03
2022-09-02T16:14:51.253Z,1.60
2022-09-02T16:17:18.578Z,1.50
2022-09-02T16:19:47.004Z,1.63
2022-09-02T16:22:14.249Z,1.70
2022-09-02T16:24:41.904Z,2.80
2022-09-02T16:27:10.085Z,1.70
2022-09-02T16:29:37.901Z,1.80
2022-09-02T16:32:24.499Z,2.40
2022-09-02T16:34:55.765Z,1.65
2022-09-02T16:37:23.010Z,1.67
2022-09-02T16:39:50.416Z,1.60
2022-09-02T16:42:17.719Z,1.75
2022-09-02T16:44:46.029Z,2.00
2022-09-02T16:47:19.011Z,1.90
2022-09-02T16:49:46.529Z,2.00
2022-09-02T16:52:14.425Z,2.22
2022-09-02T16:54:41.825Z,2.08
2022-09-02T16:57:09.263Z,2.00
2022-09-02T16:59:37.076Z,2.10
2022-09-02T17:02:04.421Z,2.42
2022-09-02T17:04:31.872Z,2.50
2022-09-02T17:06:59.307Z,2.10
2022-09-02T17:09:26.918Z,2.03
2022-09-02T17:11:54.497Z,2.22
2022-09-02T17:14:21.895Z,2.10
2022-09-02T17:16:50.412Z,2.33
2022-09-02T17:19:22.459Z,1.83
2022-09-02T17:21:54.358Z,2.35
2022-09-02T17:24:23.377Z,2.38
2022-09-02T17:26:51.411Z,2.60
2022-09-02T17:29:47.500Z,2.00
2022-09-02T17:32:07.947Z,2.00
2022-09-02T17:34:35.574Z,1.80
2022-09-02T17:37:03.324Z,2.00
2022-09-02T17:39:31.072Z,1.85
2022-09-02T17:41:58.565Z,2.35
2022-09-02T17:44:25.940Z,2.72
2022-09-02T17:46:54.153Z,2.38
2022-09-02T17:49:21.812Z,2.63
2022-09-02T17:51:50.128Z,2.80
2022-09-02T17:54:17.649Z,4.72
2022-09-02T17:57:04.446Z,3.88
2022-09-02T17:59:59.021Z,3.60
2022-09-02T18:02:35.951Z,3.03
2022-09-02T18:05:15.439Z,2.78
2022-09-02T18:07:47.936Z,2.45
2022-09-02T18:10:18.111Z,2.15
2022-09-02T18:12:45.417Z,1.75
2022-09-02T18:15:16.915Z,2.03
2022-09-02T18:17:48.152Z,2.47
2022-09-02T18:20:21.710Z,2.20
2022-09-02T18:23:01.394Z,1.67
2022-09-02T18:25:48.778Z,1.90
2022-09-02T18:28:16.803Z,1.95
2022-09-02T18:31:04.634Z,1.85
2022-09-02T18:33:50.835Z,1.98
2022-09-02T18:36:39.205Z,2.20
2022-09-02T18:39:15.413Z,2.10
2022-09-02T18:41:55.134Z,1.90
2022-09-02T18:44:22.610Z,2.10
2022-09-02T18:46:52.844Z,1.67
2022-09-02T18:49:22.236Z,1.65
2022-09-02T18:51:51.566Z,1.90
2022-09-02T18:54:23.128Z,2.20
2022-09-02T18:56:59.081Z,1.90
2022-09-02T18:59:41.974Z,2.10
2022-09-02T19:02:21.774Z,1.50
2022-09-02T19:04:49.606Z,1.42
2022-09-02T19:07:37.446Z,1.30
2022-09-02T19:10:06.066Z,1.80
2022-09-02T19:12:36.839Z,1.85
2022-09-02T19:15:07.900Z,1.65
2022-09-02T19:17:35.451Z,1.60
2022-09-02T19:20:03.045Z,1.58
2022-09-02T19:22:31.813Z,1.60
2022-09-02T19:25:03.065Z,1.58
2022-09-02T19:27:32.483Z,1.55
2022-09-02T19:30:10.708Z,1.73
2022-09-02T19:32:39.381Z,1.40
2022-09-02T19:35:21.500Z,1.45
2022-09-02T19:37:51.534Z,1.73
2022-09-02T19:40:20.848Z,1.50
2022-09-02T19:42:48.723Z,1.58
2022-09-02T19:45:16.790Z,1.50
2022-09-02T19:48:05.952Z,1.70
2022-09-02T19:50:36.157Z,1.63
2022-09-02T19:53:03.806Z,1.70
2022-09-02T19:55:33.716Z,1.60
2022-09-02T19:58:01.221Z,1.75
2022-09-02T20:00:28.798Z,2.30
2022-09-02T20:02:56.924Z,2.08
2022-09-02T20:05:25.981Z,1.90
2022-09-02T20:07:54.950Z,2.28
2022-09-02T20:10:27.769Z,2.53
2022-09-02T20:12:55.906Z,2.72
2022-09-02T20:15:23.213Z,2.50
2022-09-02T20:17:50.765Z,2.50
2022-09-02T20:20:21.813Z,2.30
2022-09-02T20:22:50.174Z,2.55
2022-09-02T20:25:18.259Z,2.60
2022-09-02T20:28:04.728Z,2.35
2022-09-02T20:30:35.069Z,2.13
2022-09-02T20:33:12.285Z,2.20
2022-09-02T20:36:03.656Z,2.17
2022-09-02T20:38:53.601Z,2.15
2022-09-02T20:41:52.040Z,2.47
2022-09-02T20:44:34.857Z,2.05
2022-09-02T20:47:14.491Z,2.08
2022-09-02T20:49:57.233Z,2.50
2022-09-02T20:52:31.498Z,2.17
2022-09-02T20:55:07.212Z,2.40
2022-09-02T20:57:34.591Z,2.30
2022-09-02T21:00:10.770Z,2.55
2022-09-02T21:02:41.682Z,2.33
2022-09-02T21:05:22.398Z,2.28
2022-09-02T21:07:55.475Z,2.40
2022-09-02T21:10:26.998Z,2.17
2022-09-02T21:12:59.364Z,2.50
2022-09-02T21:15:34.436Z,2.85
2022-09-02T21:18:23.624Z,3.03
2022-09-02T21:20:53.865Z,3.17
2022-09-02T21:23:41.439Z,3.10
2022-09-02T21:26:12.029Z,2.67
2022-09-02T21:29:00.918Z,2.40
2022-09-02T21:31:32.648Z,2.30
2022-09-02T21:34:01.956Z,1.85
2022-09-02T21:36:32.789Z,2.42
2022-09-02T21:39:04.960Z,2.20
2022-09-02T21:41:41.352Z,2.58
2022-09-02T21:44:23.481Z,2.25
2022-09-02T21:47:01.750Z,1.95
2022-09-02T21:49:41.319Z,2.08
2022-09-02T21:52:27.498Z,1.88
2022-09-02T21:55:02.070Z,2.00
2022-09-02T21:57:32.425Z,1.92
2022-09-02T22:00:00.540Z,2.17
2022-09-02T22:02:28.208Z,2.90
2022-09-02T22:05:04.711Z,3.42
2022-09-02T22:07:33.605Z,2.55
2022-09-02T22:10:07.105Z,2.50
2022-09-02T22:12:40.096Z,2.30
2022-09-02T22:15:13.392Z,1.70
2022-09-02T22:17:51.795Z,1.88
2022-09-02T22:20:21.752Z,1.83
2022-09-02T22:22:53.517Z,2.42
2022-09-02T22:25:23.174Z,2.03
2022-09-02T22:28:17.005Z,1.77
2022-09-02T22:30:48.486Z,2.13
2022-09-02T22:33:17.732Z,2.55
2022-09-02T22:35:45.187Z,2.10
2022-09-02T22:38:16.619Z,2.00
2022-09-02T22:40:47.061Z,1.88
2022-09-02T22:43:16.566Z,2.00
2022-09-02T22:46:05.101Z,1.67
2022-09-02T22:48:55.967Z,1.77
2022-09-02T22:51:49.261Z,1.85
2022-09-02T22:54:17.685Z,2.10
2022-09-02T22:56:51.753Z,1.70
2022-09-02T22:59:26.722Z,1.80
2022-09-02T23:02:05.806Z,1.90
2022-09-02T23:04:39.515Z,2.10
2022-09-02T23:07:07.614Z,1.80
2022-09-02T23:09:38.929Z,1.98
2022-09-02T23:12:09.295Z,1.67
2022-09-02T23:14:44.528Z,1.92
2022-09-02T23:17:34.744Z,1.80
2022-09-02T23:20:14.664Z,1.67
2022-09-02T23:22:42.521Z,1.92
2022-09-02T23:25:15.602Z,2.10
2022-09-02T23:27:51.390Z,1.50
2022-09-02T23:30:18.713Z,1.85
2022-09-02T23:32:46.800Z,1.90
2022-09-02T23:35:33.325Z,2.00
2022-09-02T23:38:00.557Z,1.60
2022-09-02T23:40:52.643Z,2.03
2022-09-02T23:43:20.658Z,1.80
2022-09-02T23:45:48.453Z,1.92
2022-09-02T23:48:15.783Z,2.05
2022-09-02T23:51:04.017Z,1.70
2022-09-02T23:53:37.209Z,2.22
2022-09-02T23:56:04.510Z,1.73
2022-09-02T23:58:50.868Z,2.00
